createdAt,value
2023-01-27T00:01:31.405Z,83.50
2023-01-27T00:05:20.506Z,84.60
2023-01-27T00:09:10.186Z,87.40
2023-01-27T00:12:57.645Z,91.30
2023-01-27T00:16:46.811Z,82.70
2023-01-27T00:20:35.839Z,84.10
2023-01-27T00:24:23.371Z,86.80
2023-01-27T00:28:12.352Z,84.70
2023-01-27T00:32:01.629Z,83.30
2023-01-27T00:35:50.661Z,84.70
2023-01-27T00:55:32.769Z,92.50
2023-01-27T00:59:20.429Z,87.30
2023-01-27T01:03:08.299Z,86.80
2023-01-27T01:06:55.974Z,83.80
2023-01-27T01:10:44.038Z,87.20
2023-01-27T01:14:31.559Z,86.00
2023-01-27T01:22:06.560Z,92.50
2023-01-27T01:29:41.198Z,81.60
2023-01-27T01:33:28.451Z,89.70
2023-01-27T01:37:19.218Z,85.40
2023-01-27T02:07:52.607Z,83.40
2023-01-27T02:11:41.545Z,79.50
2023-01-27T02:15:30.961Z,80.00
2023-01-27T02:19:48.488Z,87.30
2023-01-27T02:23:43.314Z,83.90
2023-01-27T02:27:34.966Z,82.70
2023-01-27T02:31:24.118Z,83.00
2023-01-27T02:35:13.444Z,80.90
2023-01-27T02:38:55.996Z,77.80
2023-01-27T02:42:45.029Z,77.90
2023-01-27T02:46:34.030Z,77.90
2023-01-27T02:50:23.307Z,73.50
2023-01-27T02:54:12.355Z,78.40
2023-01-27T02:58:01.467Z,70.50
2023-01-27T03:01:51.689Z,72.50
2023-01-27T03:05:41.501Z,69.20
2023-01-27T03:09:32.899Z,66.60
2023-01-27T03:13:21.941Z,66.80
2023-01-27T03:17:10.354Z,68.10
2023-01-27T03:20:59.210Z,66.50
2023-01-27T03:24:48.312Z,70.40
2023-01-27T03:28:37.586Z,69.10
2023-01-27T03:32:29.370Z,67.30
2023-01-27T03:36:15.699Z,68.60
2023-01-27T03:40:08.720Z,79.90
2023-01-27T03:43:56.067Z,70.60
2023-01-27T03:47:45.006Z,75.00
2023-01-27T03:51:34.099Z,70.70
2023-01-27T03:55:23.114Z,77.00
2023-01-27T03:59:17.856Z,77.60
2023-01-27T04:03:05.770Z,73.30
2023-01-27T04:06:53.036Z,71.40
2023-01-27T04:10:42.012Z,70.50
2023-01-27T04:14:30.993Z,67.00
2023-01-27T04:18:14.156Z,68.80
2023-01-27T04:22:03.349Z,67.80
2023-01-27T04:25:51.040Z,70.00
2023-01-27T04:29:39.977Z,69.60
2023-01-27T04:33:29.569Z,67.40
2023-01-27T04:37:18.752Z,71.90
2023-01-27T04:41:07.959Z,70.00
2023-01-27T04:44:56.988Z,73.80
2023-01-27T04:48:46.198Z,76.10
2023-01-27T04:52:35.103Z,75.90
2023-01-27T04:56:24.414Z,77.70
2023-01-27T05:00:13.899Z,75.40
2023-01-27T05:04:04.601Z,69.60
2023-01-27T05:07:53.605Z,62.20
2023-01-27T05:11:47.343Z,58.80
2023-01-27T05:15:36.355Z,55.60
2023-01-27T05:19:25.625Z,55.30
2023-01-27T05:23:14.526Z,53.60
2023-01-27T05:27:02.316Z,52.80
2023-01-27T05:46:28.372Z,50.00
2023-01-27T05:50:17.450Z,47.60
2023-01-27T05:54:06.308Z,46.50
2023-01-27T05:57:55.341Z,45.50
2023-01-27T06:01:47.279Z,41.10
2023-01-27T06:21:03.679Z,39.20
2023-01-27T06:24:52.667Z,37.20
2023-01-27T06:28:31.726Z,36.90
2023-01-27T06:32:04.035Z,37.10
2023-01-27T06:35:44.199Z,41.20
2023-01-27T06:39:22.903Z,38.30
2023-01-27T06:43:12.868Z,41.90
2023-01-27T06:46:55.543Z,42.60
2023-01-27T07:06:04.725Z,44.00
2023-01-27T07:09:51.380Z,44.30
2023-01-27T07:13:41.316Z,43.10
2023-01-27T07:17:30.387Z,43.80
2023-01-27T07:20:13.025Z,41.70
2023-01-27T07:22:52.305Z,44.20
2023-01-27T07:26:24.304Z,44.40
2023-01-27T07:30:05.178Z,44.10
2023-01-27T07:34:02.372Z,41.00
2023-01-27T07:56:23.722Z,43.20
2023-01-27T08:00:13.246Z,44.30
2023-01-27T08:03:35.530Z,44.20
2023-01-27T08:07:26.703Z,43.30
2023-01-27T08:10:51.498Z,41.60
2023-01-27T08:14:22.445Z,41.80
2023-01-27T08:18:10.249Z,36.60
2023-01-27T08:34:04.162Z,40.10
2023-01-27T08:36:54.401Z,40.80
2023-01-27T08:40:21.922Z,48.20
2023-01-27T08:44:09.629Z,43.30
2023-01-27T08:47:37.171Z,40.40
2023-01-27T08:51:24.745Z,36.50
2023-01-27T08:55:12.394Z,35.70
2023-01-27T08:58:59.822Z,32.70
2023-01-27T09:02:47.679Z,32.50
2023-01-27T09:06:35.778Z,28.90
2023-01-27T09:10:15.123Z,31.20
2023-01-27T09:18:10.113Z,30.80
2023-01-27T09:25:37.236Z,29.90
2023-01-27T09:41:26.098Z,37.40
2023-01-27T09:45:22.459Z,34.90
2023-01-27T09:49:14.478Z,35.60
2023-01-27T09:52:57.761Z,36.10
2023-01-27T10:08:05.196Z,35.30
2023-01-27T10:12:03.608Z,35.70
2023-01-27T10:15:58.879Z,38.70
2023-01-27T10:19:41.985Z,34.90
2023-01-27T10:24:01.128Z,34.90
2023-01-27T10:27:33.005Z,35.30
2023-01-27T10:31:14.591Z,34.80
2023-01-27T10:50:27.341Z,36.60
2023-01-27T10:54:16.517Z,34.80
2023-01-27T10:57:59.380Z,33.80
2023-01-27T11:01:48.350Z,31.00
2023-01-27T11:05:31.063Z,30.50
2023-01-27T11:31:41.766Z,33.40
2023-01-27T11:35:05.736Z,32.00
2023-01-27T11:38:48.193Z,31.60
2023-01-27T11:42:29.672Z,32.70
2023-01-27T11:45:58.518Z,33.10
2023-01-27T11:49:38.941Z,38.20
2023-01-27T11:53:30.264Z,33.60
2023-01-27T11:57:19.279Z,35.30
2023-01-27T12:00:53.778Z,32.70
2023-01-27T12:04:39.328Z,33.90
2023-01-27T12:08:27.093Z,30.50
2023-01-27T12:12:07.460Z,31.40
2023-01-27T12:19:17.335Z,29.20
2023-01-27T12:23:21.633Z,30.50
2023-01-27T12:27:17.550Z,29.00
2023-01-27T12:44:28.987Z,30.30
2023-01-27T12:48:24.030Z,29.10
2023-01-27T12:52:17.620Z,29.50
2023-01-27T12:56:08.598Z,27.40
2023-01-27T12:59:42.693Z,30.60
2023-01-27T13:02:36.391Z,39.20
2023-01-27T13:05:27.379Z,33.90
2023-01-27T13:08:49.582Z,29.90
2023-01-27T13:12:03.759Z,28.40
2023-01-27T13:15:22.103Z,32.10
2023-01-27T13:26:53.888Z,32.60
2023-01-27T13:30:25.594Z,30.40
2023-01-27T13:34:04.825Z,28.30
2023-01-27T13:37:49.242Z,27.70
2023-01-27T13:40:50.571Z,29.40
2023-01-27T13:43:34.515Z,26.50
2023-01-27T14:11:00.739Z,28.90
2023-01-27T14:14:56.193Z,25.80
2023-01-27T14:19:00.790Z,27.50
2023-01-27T14:22:50.184Z,28.60
2023-01-27T14:26:35.683Z,30.00
2023-01-27T14:29:59.245Z,31.20
2023-01-27T14:52:26.988Z,30.10
2023-01-27T14:56:18.203Z,29.50
2023-01-27T14:59:40.648Z,26.50
2023-01-27T15:15:49.130Z,26.40
2023-01-27T15:19:37.621Z,26.20
2023-01-27T15:23:36.531Z,26.00
2023-01-27T15:35:32.470Z,28.30
2023-01-27T15:39:25.968Z,28.00
2023-01-27T15:43:33.342Z,27.80
2023-01-27T15:47:29.281Z,29.90
2023-01-27T15:59:37.866Z,34.20
2023-01-27T16:03:27.983Z,30.20
2023-01-27T16:07:23.468Z,30.90
2023-01-27T16:11:12.550Z,36.70
2023-01-27T16:23:24.891Z,41.10
2023-01-27T16:27:29.490Z,39.60
2023-01-27T16:31:19.993Z,42.80
2023-01-27T16:43:34.555Z,36.80
2023-01-27T16:47:23.803Z,33.70
2023-01-27T16:55:10.562Z,31.60
2023-01-27T17:11:06.833Z,27.80
2023-01-27T17:15:02.732Z,33.10
2023-01-27T17:18:52.986Z,28.20
2023-01-27T17:22:42.481Z,32.00
2023-01-27T17:26:35.082Z,25.30
2023-01-27T17:30:26.136Z,26.20
2023-01-27T17:42:27.383Z,28.10
2023-01-27T17:46:16.642Z,28.20
2023-01-27T17:50:07.408Z,25.80
2023-01-27T18:01:59.120Z,34.00
2023-01-27T18:05:48.359Z,27.70
2023-01-27T18:09:37.414Z,28.40
2023-01-27T18:13:26.769Z,27.60
2023-01-27T18:17:18.579Z,28.20
2023-01-27T18:21:10.297Z,25.50
2023-01-27T18:24:59.253Z,22.50
2023-01-27T18:28:49.665Z,21.40
2023-01-27T18:32:39.687Z,20.90
2023-01-27T18:36:39.621Z,18.70
2023-01-27T18:48:53.451Z,28.30
2023-01-27T18:52:41.321Z,26.70
2023-01-27T18:56:24.877Z,25.10
2023-01-27T19:00:12.820Z,20.60
2023-01-27T19:07:56.893Z,26.60
2023-01-27T19:11:45.987Z,39.80
2023-01-27T19:15:35.367Z,32.60
2023-01-27T19:19:27.217Z,30.00
2023-01-27T19:23:16.543Z,34.10
2023-01-27T19:27:05.574Z,28.50
2023-01-27T19:31:01.011Z,25.80
2023-01-27T19:34:51.598Z,26.30
2023-01-27T19:50:30.391Z,24.90
2023-01-27T19:54:19.410Z,21.00
2023-01-27T19:58:08.547Z,24.80
2023-01-27T20:01:57.968Z,25.10
2023-01-27T20:05:47.728Z,19.50
2023-01-27T20:09:36.981Z,20.20
2023-01-27T20:13:26.190Z,18.60
2023-01-27T20:17:15.997Z,20.30
2023-01-27T20:21:05.681Z,19.10
2023-01-27T20:24:56.333Z,20.00
2023-01-27T20:32:18.840Z,18.90
2023-01-27T20:36:07.876Z,19.40
2023-01-27T20:39:56.855Z,20.10
2023-01-27T20:43:45.977Z,20.30
2023-01-27T20:47:35.008Z,20.60
2023-01-27T20:51:23.977Z,19.90
2023-01-27T20:55:13.584Z,19.50
2023-01-27T20:59:02.963Z,22.90
2023-01-27T21:02:52.022Z,20.90
2023-01-27T21:06:46.032Z,21.70
2023-01-27T21:11:21.097Z,21.80
2023-01-27T21:15:07.373Z,22.40
2023-01-27T21:18:54.738Z,21.60
2023-01-27T21:30:38.475Z,22.90
2023-01-27T21:34:27.499Z,22.80
2023-01-27T21:38:16.891Z,25.30
2023-01-27T21:42:14.714Z,23.70
2023-01-27T21:46:03.885Z,26.40
2023-01-27T21:49:53.608Z,23.70
2023-01-27T22:01:46.973Z,25.50
2023-01-27T22:05:36.023Z,27.30
2023-01-27T22:09:25.034Z,27.30
2023-01-27T22:13:14.140Z,26.50
2023-01-27T22:17:04.425Z,25.30
2023-01-27T22:20:55.739Z,25.40
2023-01-27T22:24:46.923Z,25.60
2023-01-27T22:28:27.361Z,26.10
2023-01-27T22:32:16.361Z,27.30
2023-01-27T22:36:06.569Z,26.70
2023-01-27T22:39:57.245Z,25.90
2023-01-27T22:43:48.095Z,24.80
2023-01-27T22:47:38.391Z,25.40
2023-01-27T22:51:27.399Z,26.40
2023-01-27T22:55:16.678Z,25.70
2023-01-27T22:59:05.995Z,23.50
2023-01-27T23:02:54.929Z,25.10
2023-01-27T23:06:43.963Z,23.00
2023-01-27T23:10:33.015Z,24.30
2023-01-27T23:14:22.080Z,22.20
2023-01-27T23:18:11.193Z,22.50
2023-01-27T23:22:00.619Z,21.90
2023-01-27T23:25:50.658Z,22.10
2023-01-27T23:29:41.027Z,21.50
2023-01-27T23:33:31.727Z,21.70
2023-01-27T23:40:51.305Z,23.10
2023-01-27T23:44:40.318Z,22.20
2023-01-27T23:48:29.276Z,23.00
2023-01-27T23:52:18.221Z,23.20
2023-01-27T23:56:07.489Z,23.90
2023-01-27T23:59:56.502Z,22.80
